Page Field
KFMY : now visible

Airfield :











YOU CAN JOIN US ON...

 
LOGIN :

Register | Disclaimer

   EN    FR    IT 

 









Legend :    VFR   Marginal VFR   IFR   Intensive IFR   Very Intensive IFR
Visi :
Ceiling :
>= 8 km
>= 3000ft
5 to 8 km
1000 to 3000 ft
1500m to 5 km
500 to 1000 ft
800 to 1500m
200 to 500 ft
< 800m
< 200 ft
Symbols :   Thunderstorms  Fog  Heavy snow  Heavy precipitations  Wind > 20 kt






- Airport Elevation : 17 ft


KFMY - Page Field

CURRENT METAR :
  • 060603Z AUTO 18007KT 10SM CLR 25/22 A2999 RMK AO2 LTG DSNT W AND NW T02500217

EXPIRED METARs :
  • 060532Z AUTO 16007KT 10SM TS CLR 25/22 A3000 RMK AO2 LTG DSNT SW-NW TSB26 T02500222
  • 060453Z AUTO 17007KT 10SM CLR 26/23 A3001 RMK AO2 LTG DSNT SW AND W SLP164 T02560228 403330250
  • 060353Z AUTO 11008KT 10SM CLR 26/23 A3002 RMK AO2 LTG DSNT S SLP168 T02560228

TAF KFMY
Valid from the 06 at 06:00 until the 07 at 06:00 UTC


060535Z 0606/0706 11005KT P6SM VCTS SCT030CB BKN250
FM061200 16004KT P6SM VCTS FEW025CB SCT040 BKN250
FM061600 24006KT P6SM VCTS SCT025CB BKN050 BKN250
FM062200 25007KT P6SM VCSH SCT030 BKN250
FM070200 VRB04KT P6SM SCT035 BKN250
KZMA FIR / North America



MET'MAP, your aeronautical weather chart ! - Copyright ORBIFLY December 2007 - Disclaimer

ORBIFLY MET'MAP TEAM :

Programming & Development : Alexandra Zaïnal
Concept & original design : Baudouin d'Aumeries
Assistance for programming : Marc-Olivier Méhu
Technical & hardware support : Manuel Goepfert

Contact : metmap@orbifly.com




SOURCES & CREDITS :

   NOAA       Earth
Advisory